sensor_id;sensor_type;location;lat;lon;timestamp;P1;durP1;ratioP1;P2;durP2;ratioP2
52468;SDS011;38381;53.688;10.776;2023-09-07T00:03:44;3.20;;;2.90;;
52468;SDS011;38381;53.688;10.776;2023-09-07T00:08:44;6.80;;;3.40;;
52468;SDS011;38381;53.688;10.776;2023-09-07T00:13:45;4.70;;;3.28;;
52468;SDS011;38381;53.688;10.776;2023-09-07T00:18:45;3.50;;;3.13;;
52468;SDS011;38381;53.688;10.776;2023-09-07T00:23:45;5.13;;;3.23;;
52468;SDS011;38381;53.688;10.776;2023-09-07T00:28:46;3.50;;;3.20;;
52468;SDS011;38381;53.688;10.776;2023-09-07T00:33:46;3.85;;;3.55;;
52468;SDS011;38381;53.688;10.776;2023-09-07T00:38:47;3.53;;;3.13;;
52468;SDS011;38381;53.688;10.776;2023-09-07T00:43:47;4.13;;;2.83;;
52468;SDS011;38381;53.688;10.776;2023-09-07T00:48:48;4.30;;;2.90;;
52468;SDS011;38381;53.688;10.776;2023-09-07T00:53:49;7.17;;;3.27;;
52468;SDS011;38381;53.688;10.776;2023-09-07T00:58:50;3.97;;;3.10;;
52468;SDS011;38381;53.688;10.776;2023-09-07T01:03:52;4.80;;;3.37;;
52468;SDS011;38381;53.688;10.776;2023-09-07T01:08:53;4.07;;;3.67;;
52468;SDS011;38381;53.688;10.776;2023-09-07T01:13:58;3.40;;;2.95;;
52468;SDS011;38381;53.688;10.776;2023-09-07T01:18:58;3.90;;;3.50;;
52468;SDS011;38381;53.688;10.776;2023-09-07T01:24:00;3.63;;;3.33;;
52468;SDS011;38381;53.688;10.776;2023-09-07T01:29:01;3.75;;;3.17;;
52468;SDS011;38381;53.688;10.776;2023-09-07T01:34:02;3.90;;;3.47;;
52468;SDS011;38381;53.688;10.776;2023-09-07T01:39:03;4.40;;;3.70;;
52468;SDS011;38381;53.688;10.776;2023-09-07T01:44:06;6.25;;;3.90;;
52468;SDS011;38381;53.688;10.776;2023-09-07T01:49:06;3.43;;;3.13;;
52468;SDS011;38381;53.688;10.776;2023-09-07T01:54:06;3.47;;;3.00;;
52468;SDS011;38381;53.688;10.776;2023-09-07T01:59:07;4.07;;;3.67;;
52468;SDS011;38381;53.688;10.776;2023-09-07T02:04:08;4.55;;;3.38;;
52468;SDS011;38381;53.688;10.776;2023-09-07T02:09:08;4.00;;;3.60;;
52468;SDS011;38381;53.688;10.776;2023-09-07T02:14:08;4.22;;;3.55;;
52468;SDS011;38381;53.688;10.776;2023-09-07T02:19:09;3.63;;;3.33;;
52468;SDS011;38381;53.688;10.776;2023-09-07T02:24:10;4.20;;;3.80;;
52468;SDS011;38381;53.688;10.776;2023-09-07T02:29:11;3.87;;;3.43;;
52468;SDS011;38381;53.688;10.776;2023-09-07T02:39:24;4.70;;;3.47;;
52468;SDS011;38381;53.688;10.776;2023-09-07T02:44:26;4.20;;;3.80;;
52468;SDS011;38381;53.688;10.776;2023-09-07T02:49:26;4.00;;;3.30;;
52468;SDS011;38381;53.688;10.776;2023-09-07T02:54:27;3.72;;;3.42;;
52468;SDS011;38381;53.688;10.776;2023-09-07T02:59:27;3.70;;;3.40;;
52468;SDS011;38381;53.688;10.776;2023-09-07T03:04:28;4.07;;;3.57;;
52468;SDS011;38381;53.688;10.776;2023-09-07T03:09:28;4.47;;;3.33;;
52468;SDS011;38381;53.688;10.776;2023-09-07T03:14:29;4.28;;;3.55;;
52468;SDS011;38381;53.688;10.776;2023-09-07T03:19:29;3.50;;;3.20;;
52468;SDS011;38381;53.688;10.776;2023-09-07T03:24:29;3.75;;;3.45;;
52468;SDS011;38381;53.688;10.776;2023-09-07T03:29:30;3.87;;;3.47;;
52468;SDS011;38381;53.688;10.776;2023-09-07T03:34:30;4.88;;;3.47;;
52468;SDS011;38381;53.688;10.776;2023-09-07T03:39:31;4.10;;;3.70;;
52468;SDS011;38381;53.688;10.776;2023-09-07T03:44:31;4.23;;;3.83;;
52468;SDS011;38381;53.688;10.776;2023-09-07T03:49:31;4.10;;;3.60;;
52468;SDS011;38381;53.688;10.776;2023-09-07T03:54:32;3.63;;;3.33;;
52468;SDS011;38381;53.688;10.776;2023-09-07T03:59:32;3.40;;;3.10;;
52468;SDS011;38381;53.688;10.776;2023-09-07T04:04:32;3.67;;;3.37;;
52468;SDS011;38381;53.688;10.776;2023-09-07T04:09:33;4.18;;;3.80;;
52468;SDS011;38381;53.688;10.776;2023-09-07T04:14:33;4.10;;;3.70;;
52468;SDS011;38381;53.688;10.776;2023-09-07T04:19:34;3.63;;;3.33;;
52468;SDS011;38381;53.688;10.776;2023-09-07T04:24:34;4.63;;;3.63;;
52468;SDS011;38381;53.688;10.776;2023-09-07T04:29:34;4.83;;;4.37;;
52468;SDS011;38381;53.688;10.776;2023-09-07T04:34:35;4.65;;;4.25;;
52468;SDS011;38381;53.688;10.776;2023-09-07T04:39:35;4.10;;;3.77;;
52468;SDS011;38381;53.688;10.776;2023-09-07T04:44:36;4.88;;;4.47;;
52468;SDS011;38381;53.688;10.776;2023-09-07T04:49:36;5.87;;;4.47;;
52468;SDS011;38381;53.688;10.776;2023-09-07T04:54:36;4.67;;;3.43;;
52468;SDS011;38381;53.688;10.776;2023-09-07T04:59:37;5.83;;;3.80;;
52468;SDS011;38381;53.688;10.776;2023-09-07T05:04:37;6.63;;;4.15;;
52468;SDS011;38381;53.688;10.776;2023-09-07T05:09:38;3.72;;;3.42;;
52468;SDS011;38381;53.688;10.776;2023-09-07T05:14:39;4.40;;;4.00;;
52468;SDS011;38381;53.688;10.776;2023-09-07T05:19:42;6.90;;;4.13;;
52468;SDS011;38381;53.688;10.776;2023-09-07T05:24:42;7.83;;;4.90;;
52468;SDS011;38381;53.688;10.776;2023-09-07T05:29:45;5.32;;;4.85;;
52468;SDS011;38381;53.688;10.776;2023-09-07T05:34:45;5.47;;;4.43;;
52468;SDS011;38381;53.688;10.776;2023-09-07T05:39:46;4.20;;;3.80;;
52468;SDS011;38381;53.688;10.776;2023-09-07T05:44:46;6.05;;;5.45;;
52468;SDS011;38381;53.688;10.776;2023-09-07T05:49:46;5.47;;;4.83;;
52468;SDS011;38381;53.688;10.776;2023-09-07T05:54:47;4.80;;;4.35;;
52468;SDS011;38381;53.688;10.776;2023-09-07T05:59:47;7.30;;;4.50;;
52468;SDS011;38381;53.688;10.776;2023-09-07T06:04:48;5.87;;;5.07;;
52468;SDS011;38381;53.688;10.776;2023-09-07T06:09:48;5.17;;;4.67;;
52468;SDS011;38381;53.688;10.776;2023-09-07T06:14:48;5.00;;;4.60;;
52468;SDS011;38381;53.688;10.776;2023-09-07T06:19:49;5.43;;;4.27;;
52468;SDS011;38381;53.688;10.776;2023-09-07T06:24:49;6.63;;;4.90;;
52468;SDS011;38381;53.688;10.776;2023-09-07T06:29:50;5.18;;;4.57;;
52468;SDS011;38381;53.688;10.776;2023-09-07T06:34:51;6.72;;;4.53;;
52468;SDS011;38381;53.688;10.776;2023-09-07T06:39:52;6.20;;;4.78;;
52468;SDS011;38381;53.688;10.776;2023-09-07T06:44:52;4.87;;;4.37;;
52468;SDS011;38381;53.688;10.776;2023-09-07T06:49:52;5.38;;;4.88;;
52468;SDS011;38381;53.688;10.776;2023-09-07T06:54:54;5.43;;;4.90;;
52468;SDS011;38381;53.688;10.776;2023-09-07T06:59:54;6.13;;;4.55;;
52468;SDS011;38381;53.688;10.776;2023-09-07T07:04:55;7.22;;;4.22;;
52468;SDS011;38381;53.688;10.776;2023-09-07T07:09:55;10.73;;;5.03;;
52468;SDS011;38381;53.688;10.776;2023-09-07T07:14:55;5.30;;;4.13;;
52468;SDS011;38381;53.688;10.776;2023-09-07T07:19:56;12.63;;;3.93;;
52468;SDS011;38381;53.688;10.776;2023-09-07T07:24:56;5.53;;;4.13;;
52468;SDS011;38381;53.688;10.776;2023-09-07T07:29:57;5.50;;;4.13;;
52468;SDS011;38381;53.688;10.776;2023-09-07T07:34:57;7.05;;;4.35;;
52468;SDS011;38381;53.688;10.776;2023-09-07T07:39:58;3.92;;;3.60;;
52468;SDS011;38381;53.688;10.776;2023-09-07T07:44:59;10.07;;;4.63;;
52468;SDS011;38381;53.688;10.776;2023-09-07T07:49:59;5.93;;;4.10;;
52468;SDS011;38381;53.688;10.776;2023-09-07T07:54:59;5.87;;;4.17;;
52468;SDS011;38381;53.688;10.776;2023-09-07T08:00:00;4.15;;;3.75;;
52468;SDS011;38381;53.688;10.776;2023-09-07T08:05:01;4.70;;;4.10;;
52468;SDS011;38381;53.688;10.776;2023-09-07T08:10:01;4.57;;;3.83;;
52468;SDS011;38381;53.688;10.776;2023-09-07T08:15:03;5.40;;;3.45;;
52468;SDS011;38381;53.688;10.776;2023-09-07T08:20:04;6.80;;;4.05;;
52468;SDS011;38381;53.688;10.776;2023-09-07T08:25:05;5.97;;;4.18;;
52468;SDS011;38381;53.688;10.776;2023-09-07T08:30:06;4.43;;;4.03;;
52468;SDS011;38381;53.688;10.776;2023-09-07T08:35:10;4.30;;;3.57;;
52468;SDS011;38381;53.688;10.776;2023-09-07T08:40:14;5.85;;;4.03;;
52468;SDS011;38381;53.688;10.776;2023-09-07T08:45:17;6.63;;;3.80;;
52468;SDS011;38381;53.688;10.776;2023-09-07T08:50:21;5.00;;;3.72;;
52468;SDS011;38381;53.688;10.776;2023-09-07T08:55:24;6.85;;;3.92;;
52468;SDS011;38381;53.688;10.776;2023-09-07T09:00:25;5.23;;;4.00;;
52468;SDS011;38381;53.688;10.776;2023-09-07T09:05:26;4.17;;;3.73;;
52468;SDS011;38381;53.688;10.776;2023-09-07T09:10:28;4.13;;;3.22;;
52468;SDS011;38381;53.688;10.776;2023-09-07T09:15:29;6.17;;;3.80;;
52468;SDS011;38381;53.688;10.776;2023-09-07T09:20:29;3.90;;;3.37;;
52468;SDS011;38381;53.688;10.776;2023-09-07T09:25:30;7.27;;;3.33;;
52468;SDS011;38381;53.688;10.776;2023-09-07T09:30:31;5.88;;;3.75;;
52468;SDS011;38381;53.688;10.776;2023-09-07T09:35:31;3.17;;;2.83;;
52468;SDS011;38381;53.688;10.776;2023-09-07T09:40:34;3.20;;;2.90;;
52468;SDS011;38381;53.688;10.776;2023-09-07T09:45:35;3.90;;;3.07;;
52468;SDS011;38381;53.688;10.776;2023-09-07T09:50:35;4.57;;;3.07;;
52468;SDS011;38381;53.688;10.776;2023-09-07T09:55:38;4.20;;;2.60;;
52468;SDS011;38381;53.688;10.776;2023-09-07T10:00:40;6.97;;;3.57;;
52468;SDS011;38381;53.688;10.776;2023-09-07T10:05:46;3.72;;;3.10;;
52468;SDS011;38381;53.688;10.776;2023-09-07T10:10:47;2.97;;;2.67;;
52468;SDS011;38381;53.688;10.776;2023-09-07T10:15:47;3.37;;;2.70;;
52468;SDS011;38381;53.688;10.776;2023-09-07T10:25:56;5.15;;;2.88;;
52468;SDS011;38381;53.688;10.776;2023-09-07T10:36:05;3.47;;;2.55;;
52468;SDS011;38381;53.688;10.776;2023-09-07T10:41:06;3.95;;;2.60;;
52468;SDS011;38381;53.688;10.776;2023-09-07T10:46:06;3.53;;;3.03;;
52468;SDS011;38381;53.688;10.776;2023-09-07T10:51:07;3.93;;;3.30;;
52468;SDS011;38381;53.688;10.776;2023-09-07T10:56:07;3.93;;;3.30;;
52468;SDS011;38381;53.688;10.776;2023-09-07T11:06:10;6.78;;;2.95;;
52468;SDS011;38381;53.688;10.776;2023-09-07T11:11:15;3.40;;;2.80;;
52468;SDS011;38381;53.688;10.776;2023-09-07T11:16:16;4.10;;;2.67;;
52468;SDS011;38381;53.688;10.776;2023-09-07T11:21:17;2.80;;;2.50;;
52468;SDS011;38381;53.688;10.776;2023-09-07T11:26:19;3.40;;;2.55;;
52468;SDS011;38381;53.688;10.776;2023-09-07T11:31:20;3.88;;;2.50;;
52468;SDS011;38381;53.688;10.776;2023-09-07T11:36:21;4.73;;;3.20;;
52468;SDS011;38381;53.688;10.776;2023-09-07T11:41:24;3.05;;;2.60;;
52468;SDS011;38381;53.688;10.776;2023-09-07T11:46:25;5.93;;;2.50;;
52468;SDS011;38381;53.688;10.776;2023-09-07T11:51:25;5.07;;;2.70;;
52468;SDS011;38381;53.688;10.776;2023-09-07T11:56:26;3.07;;;2.57;;
52468;SDS011;38381;53.688;10.776;2023-09-07T12:01:27;4.32;;;2.45;;
52468;SDS011;38381;53.688;10.776;2023-09-07T12:06:27;3.17;;;2.20;;
52468;SDS011;38381;53.688;10.776;2023-09-07T12:11:27;3.30;;;2.80;;
52468;SDS011;38381;53.688;10.776;2023-09-07T12:16:28;3.77;;;2.67;;
52468;SDS011;38381;53.688;10.776;2023-09-07T12:21:28;4.47;;;2.63;;
52468;SDS011;38381;53.688;10.776;2023-09-07T12:26:29;4.20;;;2.90;;
52468;SDS011;38381;53.688;10.776;2023-09-07T12:31:29;5.80;;;2.30;;
52468;SDS011;38381;53.688;10.776;2023-09-07T12:36:31;3.25;;;2.72;;
52468;SDS011;38381;53.688;10.776;2023-09-07T12:41:31;4.53;;;3.17;;
52468;SDS011;38381;53.688;10.776;2023-09-07T12:46:32;3.03;;;2.70;;
52468;SDS011;38381;53.688;10.776;2023-09-07T12:51:32;4.50;;;2.57;;
52468;SDS011;38381;53.688;10.776;2023-09-07T12:56:33;3.03;;;2.43;;
52468;SDS011;38381;53.688;10.776;2023-09-07T13:01:33;4.10;;;2.80;;
52468;SDS011;38381;53.688;10.776;2023-09-07T13:06:34;7.03;;;2.83;;
52468;SDS011;38381;53.688;10.776;2023-09-07T13:11:35;2.63;;;2.00;;
52468;SDS011;38381;53.688;10.776;2023-09-07T13:16:35;6.47;;;2.80;;
52468;SDS011;38381;53.688;10.776;2023-09-07T13:21:36;3.17;;;2.43;;
52468;SDS011;38381;53.688;10.776;2023-09-07T13:26:36;3.00;;;2.57;;
52468;SDS011;38381;53.688;10.776;2023-09-07T13:31:37;4.33;;;2.63;;
52468;SDS011;38381;53.688;10.776;2023-09-07T13:36:37;2.97;;;2.47;;
52468;SDS011;38381;53.688;10.776;2023-09-07T13:41:38;3.28;;;2.47;;
52468;SDS011;38381;53.688;10.776;2023-09-07T13:46:39;2.70;;;2.10;;
52468;SDS011;38381;53.688;10.776;2023-09-07T13:51:39;2.73;;;2.30;;
52468;SDS011;38381;53.688;10.776;2023-09-07T13:56:40;4.22;;;2.47;;
52468;SDS011;38381;53.688;10.776;2023-09-07T14:01:42;4.82;;;2.33;;
52468;SDS011;38381;53.688;10.776;2023-09-07T14:06:42;4.53;;;2.53;;
52468;SDS011;38381;53.688;10.776;2023-09-07T14:11:43;2.60;;;2.20;;
52468;SDS011;38381;53.688;10.776;2023-09-07T14:16:43;3.27;;;2.23;;
52468;SDS011;38381;53.688;10.776;2023-09-07T14:21:43;3.73;;;2.50;;
52468;SDS011;38381;53.688;10.776;2023-09-07T14:26:44;3.53;;;2.50;;
52468;SDS011;38381;53.688;10.776;2023-09-07T14:31:44;2.80;;;2.40;;
52468;SDS011;38381;53.688;10.776;2023-09-07T14:36:45;2.92;;;2.13;;
52468;SDS011;38381;53.688;10.776;2023-09-07T14:41:46;3.97;;;2.60;;
52468;SDS011;38381;53.688;10.776;2023-09-07T14:46:47;3.10;;;2.72;;
52468;SDS011;38381;53.688;10.776;2023-09-07T14:51:49;4.45;;;2.50;;
52468;SDS011;38381;53.688;10.776;2023-09-07T14:56:49;3.80;;;2.60;;
52468;SDS011;38381;53.688;10.776;2023-09-07T15:01:50;6.77;;;3.27;;
52468;SDS011;38381;53.688;10.776;2023-09-07T15:06:50;6.07;;;2.80;;
52468;SDS011;38381;53.688;10.776;2023-09-07T15:11:51;2.60;;;2.03;;
52468;SDS011;38381;53.688;10.776;2023-09-07T15:16:53;3.05;;;2.38;;
52468;SDS011;38381;53.688;10.776;2023-09-07T15:21:53;3.37;;;2.80;;
52468;SDS011;38381;53.688;10.776;2023-09-07T15:26:54;4.20;;;2.63;;
52468;SDS011;38381;53.688;10.776;2023-09-07T15:31:55;3.78;;;2.72;;
52468;SDS011;38381;53.688;10.776;2023-09-07T15:36:55;2.77;;;2.07;;
52468;SDS011;38381;53.688;10.776;2023-09-07T15:41:55;3.13;;;2.80;;
52468;SDS011;38381;53.688;10.776;2023-09-07T15:46:56;3.17;;;2.87;;
52468;SDS011;38381;53.688;10.776;2023-09-07T15:51:56;7.50;;;4.07;;
52468;SDS011;38381;53.688;10.776;2023-09-07T15:56:57;5.00;;;2.67;;
52468;SDS011;38381;53.688;10.776;2023-09-07T16:01:57;3.87;;;3.40;;
52468;SDS011;38381;53.688;10.776;2023-09-07T16:06:58;4.07;;;3.13;;
52468;SDS011;38381;53.688;10.776;2023-09-07T16:11:58;5.63;;;3.13;;
52468;SDS011;38381;53.688;10.776;2023-09-07T16:16:59;3.40;;;2.67;;
52468;SDS011;38381;53.688;10.776;2023-09-07T16:21:59;4.97;;;3.10;;
52468;SDS011;38381;53.688;10.776;2023-09-07T16:27:00;4.72;;;3.03;;
52468;SDS011;38381;53.688;10.776;2023-09-07T16:32:00;3.43;;;3.13;;
52468;SDS011;38381;53.688;10.776;2023-09-07T16:37:01;3.47;;;3.13;;
52468;SDS011;38381;53.688;10.776;2023-09-07T16:42:01;3.63;;;3.33;;
52468;SDS011;38381;53.688;10.776;2023-09-07T16:47:02;5.80;;;2.73;;
52468;SDS011;38381;53.688;10.776;2023-09-07T16:57:04;4.22;;;3.33;;
52468;SDS011;38381;53.688;10.776;2023-09-07T17:02:05;3.33;;;2.93;;
52468;SDS011;38381;53.688;10.776;2023-09-07T17:07:05;6.28;;;5.68;;
52468;SDS011;38381;53.688;10.776;2023-09-07T17:12:06;5.10;;;3.73;;
52468;SDS011;38381;53.688;10.776;2023-09-07T17:17:07;9.07;;;3.70;;
52468;SDS011;38381;53.688;10.776;2023-09-07T17:22:08;3.53;;;3.08;;
52468;SDS011;38381;53.688;10.776;2023-09-07T17:27:08;4.03;;;3.37;;
52468;SDS011;38381;53.688;10.776;2023-09-07T17:32:09;6.10;;;4.00;;
52468;SDS011;38381;53.688;10.776;2023-09-07T17:37:09;7.07;;;4.03;;
52468;SDS011;38381;53.688;10.776;2023-09-07T17:42:10;6.83;;;3.40;;
52468;SDS011;38381;53.688;10.776;2023-09-07T17:47:10;4.00;;;2.83;;
52468;SDS011;38381;53.688;10.776;2023-09-07T17:52:10;5.70;;;4.27;;
52468;SDS011;38381;53.688;10.776;2023-09-07T17:57:11;7.20;;;3.20;;
52468;SDS011;38381;53.688;10.776;2023-09-07T18:02:21;3.77;;;3.23;;
52468;SDS011;38381;53.688;10.776;2023-09-07T18:07:25;5.15;;;3.03;;
52468;SDS011;38381;53.688;10.776;2023-09-07T18:12:25;5.53;;;4.13;;
52468;SDS011;38381;53.688;10.776;2023-09-07T18:17:25;4.50;;;3.93;;
52468;SDS011;38381;53.688;10.776;2023-09-07T18:22:27;5.95;;;3.65;;
52468;SDS011;38381;53.688;10.776;2023-09-07T18:27:27;4.73;;;4.23;;
52468;SDS011;38381;53.688;10.776;2023-09-07T18:32:28;7.23;;;3.60;;
52468;SDS011;38381;53.688;10.776;2023-09-07T18:37:28;5.53;;;3.30;;
52468;SDS011;38381;53.688;10.776;2023-09-07T18:42:32;7.18;;;3.33;;
52468;SDS011;38381;53.688;10.776;2023-09-07T18:47:32;4.07;;;3.67;;
52468;SDS011;38381;53.688;10.776;2023-09-07T18:52:33;5.20;;;3.97;;
52468;SDS011;38381;53.688;10.776;2023-09-07T18:57:33;4.23;;;3.23;;
52468;SDS011;38381;53.688;10.776;2023-09-07T19:02:34;5.43;;;3.67;;
52468;SDS011;38381;53.688;10.776;2023-09-07T19:07:34;6.93;;;3.60;;
52468;SDS011;38381;53.688;10.776;2023-09-07T19:12:35;3.67;;;3.20;;
52468;SDS011;38381;53.688;10.776;2023-09-07T19:17:35;6.00;;;4.17;;
52468;SDS011;38381;53.688;10.776;2023-09-07T19:22:35;5.03;;;4.63;;
52468;SDS011;38381;53.688;10.776;2023-09-07T19:27:36;4.03;;;3.43;;
52468;SDS011;38381;53.688;10.776;2023-09-07T19:32:38;4.30;;;3.90;;
52468;SDS011;38381;53.688;10.776;2023-09-07T19:37:38;4.43;;;3.72;;
52468;SDS011;38381;53.688;10.776;2023-09-07T19:42:38;4.38;;;3.92;;
52468;SDS011;38381;53.688;10.776;2023-09-07T19:47:39;5.32;;;4.82;;
52468;SDS011;38381;53.688;10.776;2023-09-07T19:52:39;6.10;;;4.47;;
52468;SDS011;38381;53.688;10.776;2023-09-07T19:57:40;5.82;;;5.07;;
52468;SDS011;38381;53.688;10.776;2023-09-07T20:02:40;5.00;;;4.60;;
52468;SDS011;38381;53.688;10.776;2023-09-07T20:07:41;4.95;;;4.25;;
52468;SDS011;38381;53.688;10.776;2023-09-07T20:12:43;4.47;;;4.00;;
52468;SDS011;38381;53.688;10.776;2023-09-07T20:17:43;4.50;;;4.10;;
52468;SDS011;38381;53.688;10.776;2023-09-07T20:22:46;5.18;;;4.68;;
52468;SDS011;38381;53.688;10.776;2023-09-07T20:27:47;5.18;;;4.68;;
52468;SDS011;38381;53.688;10.776;2023-09-07T20:32:48;5.97;;;4.85;;
52468;SDS011;38381;53.688;10.776;2023-09-07T20:37:48;7.13;;;4.90;;
52468;SDS011;38381;53.688;10.776;2023-09-07T20:42:49;6.00;;;5.47;;
52468;SDS011;38381;53.688;10.776;2023-09-07T20:47:51;5.13;;;4.63;;
52468;SDS011;38381;53.688;10.776;2023-09-07T20:52:52;5.80;;;5.18;;
52468;SDS011;38381;53.688;10.776;2023-09-07T20:57:52;8.33;;;4.13;;
52468;SDS011;38381;53.688;10.776;2023-09-07T21:02:53;7.25;;;4.15;;
52468;SDS011;38381;53.688;10.776;2023-09-07T21:07:53;5.37;;;4.00;;
52468;SDS011;38381;53.688;10.776;2023-09-07T21:12:56;5.05;;;4.65;;
52468;SDS011;38381;53.688;10.776;2023-09-07T21:17:56;4.90;;;4.40;;
52468;SDS011;38381;53.688;10.776;2023-09-07T21:22:57;5.43;;;4.93;;
52468;SDS011;38381;53.688;10.776;2023-09-07T21:27:58;6.03;;;4.22;;
52468;SDS011;38381;53.688;10.776;2023-09-07T21:32:58;6.22;;;4.57;;
52468;SDS011;38381;53.688;10.776;2023-09-07T21:37:59;9.48;;;4.35;;
52468;SDS011;38381;53.688;10.776;2023-09-07T21:43:00;4.73;;;4.17;;
52468;SDS011;38381;53.688;10.776;2023-09-07T21:48:01;6.18;;;3.97;;
52468;SDS011;38381;53.688;10.776;2023-09-07T21:53:01;4.78;;;3.22;;
52468;SDS011;38381;53.688;10.776;2023-09-07T21:58:02;4.93;;;4.22;;
52468;SDS011;38381;53.688;10.776;2023-09-07T22:03:03;4.57;;;3.70;;
52468;SDS011;38381;53.688;10.776;2023-09-07T22:08:04;6.07;;;4.80;;
52468;SDS011;38381;53.688;10.776;2023-09-07T22:13:04;3.92;;;3.53;;
52468;SDS011;38381;53.688;10.776;2023-09-07T22:18:05;4.40;;;4.00;;
52468;SDS011;38381;53.688;10.776;2023-09-07T22:23:05;4.22;;;3.83;;
52468;SDS011;38381;53.688;10.776;2023-09-07T22:28:06;5.32;;;3.33;;
52468;SDS011;38381;53.688;10.776;2023-09-07T22:33:09;7.53;;;3.92;;
52468;SDS011;38381;53.688;10.776;2023-09-07T22:38:09;4.00;;;3.60;;
52468;SDS011;38381;53.688;10.776;2023-09-07T22:43:10;3.67;;;3.30;;
52468;SDS011;38381;53.688;10.776;2023-09-07T22:48:10;4.95;;;4.05;;
52468;SDS011;38381;53.688;10.776;2023-09-07T22:53:10;5.40;;;4.20;;
52468;SDS011;38381;53.688;10.776;2023-09-07T22:58:13;4.50;;;4.10;;
52468;SDS011;38381;53.688;10.776;2023-09-07T23:03:15;5.60;;;3.70;;
52468;SDS011;38381;53.688;10.776;2023-09-07T23:08:15;4.00;;;3.60;;
52468;SDS011;38381;53.688;10.776;2023-09-07T23:13:15;5.37;;;4.03;;
52468;SDS011;38381;53.688;10.776;2023-09-07T23:18:16;4.25;;;3.90;;
52468;SDS011;38381;53.688;10.776;2023-09-07T23:23:17;7.68;;;4.60;;
52468;SDS011;38381;53.688;10.776;2023-09-07T23:28:17;7.80;;;4.33;;
52468;SDS011;38381;53.688;10.776;2023-09-07T23:33:17;4.80;;;4.00;;
52468;SDS011;38381;53.688;10.776;2023-09-07T23:38:18;5.38;;;4.13;;
52468;SDS011;38381;53.688;10.776;2023-09-07T23:43:18;6.78;;;4.30;;
52468;SDS011;38381;53.688;10.776;2023-09-07T23:48:19;4.55;;;4.15;;
52468;SDS011;38381;53.688;10.776;2023-09-07T23:53:19;4.93;;;3.87;;
52468;SDS011;38381;53.688;10.776;2023-09-07T23:58:19;8.47;;;4.10;;
